Flight Track Log - Related Links

Times and Time Zones

All times are in EDT time to prevent confusion due to time zone crossing. See the SKQ225 flight status page for this flight to view local times or setup timezone preferences in your user account.

Time Position Orientation Groundspeed Altitude Reporting Facility
EDT Latitude Longitude Course Direction KTS MPH feet Rate Location/Type
Fri 03:29:00 AM 38.2000 -85.6500 46° Northeast 157 181 3,200  Level Louisville TRACON
Fri 03:29:20 AM 38.2000 -85.6328 90° East 158 182 3,300 750 Climbing Indianapolis Center
Fri 03:30:20 AM 38.2342 -85.5903 44° Northeast 167 192 4,200 850 Climbing Indianapolis Center
Fri 03:31:20 AM 38.2669 -85.5464 46° Northeast 168 193 5,000 893 Climbing Indianapolis Center
Fri 03:32:21 AM 38.2983 -85.5033 47° Northeast 167 192 6,000 942 Climbing Indianapolis Center
Fri 03:33:00 AM 38.3641 -85.4692 38° Northeast  Level FlightAware Approximate
Fri 03:33:21 AM 38.3300 -85.4628 45° Northeast 161 185 6,900  Level Indianapolis Center
Fri 03:34:00 AM 38.3976 -85.4256 46° Northeast  Level FlightAware Approximate
Fri 03:34:21 AM 38.3667 -85.4156 45° Northeast 180 207 7,000  Level Indianapolis Center
Fri 03:35:21 AM 38.4050 -85.3639 47° Northeast 197 227 7,000  Level Indianapolis Center
Fri 03:36:21 AM 38.4428 -85.3136 46° Northeast 196 226 7,000  Level Indianapolis Center
Fri 03:37:21 AM 38.4811 -85.2628 46° Northeast 198 228 7,000  Level Indianapolis Center
Fri 03:38:22 AM 38.5211 -85.2106 46° Northeast 199 229 7,000  Level Indianapolis Center
Fri 03:39:22 AM 38.5622 -85.1581 45° Northeast 197 227 7,000  Level Indianapolis Center
Fri 03:40:22 AM 38.6000 -85.1072 46° Northeast 197 227 7,000  Level Indianapolis Center
Fri 03:41:22 AM 38.6361 -85.0558 48° Northeast 196 226 7,000  Level Indianapolis Center
Fri 03:42:22 AM 38.6731 -85.0083 45° Northeast 198 228 7,000  Level Indianapolis Center
Fri 03:43:22 AM 38.7111 -84.9583 46° Northeast 197 227 7,000  Level Indianapolis Center
Fri 03:44:23 AM 38.7494 -84.9064 47° Northeast 199 229 7,000  Level Indianapolis Center
Fri 03:45:23 AM 38.7878 -84.8544 47° Northeast 199 229 7,000  Level Indianapolis Center
Fri 03:46:23 AM 38.8267 -84.8022 46° Northeast 201 231 7,000  Level Indianapolis Center
Fri 03:47:23 AM 38.8656 -84.7517 45° Northeast 199 229 7,000  Level Indianapolis Center
Fri 03:48:24 AM 38.9039 -84.7000 46° Northeast 199 229 7,000  Level Indianapolis Center
Fri 03:49:25 AM 38.9500 -84.6500 40° Northeast 198 228 7,000  Level Cincinnati TRACON
Fri 03:50:25 AM 38.9833 -84.5833 57° Northeast 196 226 7,000  Level Cincinnati TRACON
Fri 03:51:20 AM 39.0167 -84.5500 38° Northeast 199 229 7,000  Level Cincinnati TRACON
Fri 03:52:26 AM 39.0667 -84.4833 46° Northeast 197 227 7,000  Level Cincinnati TRACON
Fri 03:54:00 AM 39.1183 -84.4078 49° Northeast 197 227 7,000  Level Indianapolis Center
Fri 03:54:25 AM 39.1339 -84.3881 45° Northeast 200 230 7,000  Level Indianapolis Center
Fri 03:55:01 AM 39.1558 -84.3564 48° Northeast 200 230 7,000  Level Indianapolis Center
Fri 03:55:25 AM 39.1714 -84.3344 48° Northeast 199 229 7,000  Level Indianapolis Center
Fri 03:56:01 AM 39.1958 -84.3053 43° Northeast 201 231 7,000  Level Indianapolis Center
Fri 03:56:26 AM 39.2111 -84.2828 49° Northeast 201 231 7,000  Level Indianapolis Center
Fri 03:57:02 AM 39.2333 -84.2536 45° Northeast 201 231 7,000  Level Indianapolis Center
Fri 03:57:26 AM 39.2497 -84.2300 48° Northeast 201 231 7,000  Level Indianapolis Center
Fri 03:58:02 AM 39.2711 -84.1992 48° Northeast 202 232 7,000  Level Indianapolis Center
Fri 03:58:26 AM 39.2889 -84.1778 43° Northeast 200 230 7,000  Level Indianapolis Center
Fri 03:59:03 AM 39.3089 -84.1475 50° Northeast 200 230 7,000  Level Indianapolis Center
Fri 03:59:27 AM 39.3200 -84.1319 47° Northeast 201 231 7,000  Level Indianapolis Center
Fri 04:00:04 AM 39.3511 -84.0908 46° Northeast 203 234 7,000  Level Indianapolis Center
Fri 04:00:27 AM 39.3583 -84.0786 53° Northeast 201 231 7,000  Level Indianapolis Center
Fri 04:01:04 AM 39.3886 -84.0392 45° Northeast 201 231 7,000  Level Indianapolis Center
Fri 04:01:27 AM 39.3978 -84.0267 46° Northeast 201 231 7,000  Level Indianapolis Center
Fri 04:02:05 AM 39.4261 -83.9872 47° Northeast 202 232 7,000  Level Indianapolis Center
Fri 04:02:28 AM 39.4367 -83.9742 44° Northeast 201 231 7,000  Level Indianapolis Center
Fri 04:03:28 AM 39.4747 -83.9197 48° Northeast 202 232 7,000 -61 Level Indianapolis Center
Fri 04:04:06 AM 39.5036 -83.8783 48° Northeast 203 234 6,900 -200 Descending Indianapolis Center
Fri 04:04:28 AM 39.5136 -83.8653 45° Northeast 204 235 6,800 -492 Descending Indianapolis Center
Fri 04:05:07 AM 39.5456 -83.8239 45° Northeast 210 242 6,400 -393 Descending Indianapolis Center
Fri 04:05:29 AM 39.5544 -83.8097 51° Northeast 207 238 6,400 -200 Level Indianapolis Center
Fri 04:06:07 AM 39.5853 -83.7694 45° Northeast 210 242 6,200 -300 Descending Indianapolis Center
Fri 04:06:29 AM 39.5953 -83.7536 51° Northeast 210 242 6,100 -295 Descending Indianapolis Center
Fri 04:07:08 AM 39.6253 -83.7122 47° Northeast 209 241 5,900 -300 Descending Indianapolis Center
Fri 04:07:29 AM 39.6353 -83.6986 46° Northeast 210 242 5,800 -300 Descending Indianapolis Center
Fri 04:08:08 AM 39.6650 -83.6547 49° Northeast 209 241 5,600 -295 Descending Indianapolis Center
Fri 04:08:30 AM 39.6750 -83.6417 45° Northeast 210 242 5,500 -492 Descending Indianapolis Center
Fri 04:09:09 AM 39.7069 -83.5978 47° Northeast 214 246 5,100 -500 Descending Indianapolis Center
Fri 04:09:30 AM 39.7150 -83.5853 50° Northeast 211 243 5,000 -393 Descending Indianapolis Center
Fri 04:10:10 AM 39.7464 -83.5456 44° Northeast 204 235 4,700 -300 Descending Indianapolis Center
Fri 04:10:30 AM 39.7547 -83.5308 54° Northeast 209 241 4,700 -300 Level Indianapolis Center
Fri 04:11:10 AM 39.7839 -83.4906 47° Northeast 198 228 4,400 -393 Descending Indianapolis Center
Fri 04:11:31 AM 39.7925 -83.4786 47° Northeast 203 234 4,300 -197 Descending Indianapolis Center
Fri 04:12:11 AM 39.8211 -83.4406 46° Northeast 199 229 4,200 -200 Descending Indianapolis Center
Fri 04:12:31 AM 39.8281 -83.4294 51° Northeast 196 226 4,100 -300 Descending Indianapolis Center
Fri 04:13:11 AM 39.8583 -83.3881 46° Northeast 193 222 3,900 -300 Descending Indianapolis Center
Fri 04:13:31 AM 39.8636 -83.3786 54° Northeast 193 222 3,800 -393 Descending Indianapolis Center
Fri 04:14:12 AM 39.8911 -83.3378 49° Northeast 185 213 3,500 -393 Descending Indianapolis Center
Fri 04:14:32 AM 39.8989 -83.3289 41° Northeast 189 217 3,400 -300 Descending Indianapolis Center
Fri 04:16:00 AM 39.9459 -83.2528 51° Northeast  Level FlightAware Approximate
Fri 04:23:00 AM 40.0667 -83.0667 37° Northeast  Level FlightAware Approximate
Fri 04:24:00 AM 40.0798 -83.0732 37° Northeast  Level Estimated

Login

Don't have an account? Register now (free) for customized features, flight alerts, and more!